Time,TemperatureF,DewpointF,PressureIn,WindDirection,WindDirectionDegrees,WindSpeedMPH,WindSpeedGustMPH,Humidity,HourlyPrecipIn,Conditions,Clouds,dailyrainin,SolarRadiationWatts/m^2,SoftwareType,DateUTC
2013-07-04 00:01:00,74.3,68.1,30.27,SW,236,0.0,0.0,81,0.00,,,0.00,0,Wunderground v.1.15,2013-07-04 04:01:00,
2013-07-04 00:02:00,74.3,68.1,30.27,SW,236,0.0,0.0,81,0.00,,,0.00,0,Wunderground v.1.15,2013-07-04 04:02:00,
2013-07-04 00:06:00,74.3,68.4,30.27,SW,236,0.0,0.0,82,0.00,,,0.00,0,Wunderground v.1.15,2013-07-04 04:06:00,
2013-07-04 00:07:00,74.3,68.1,30.27,SW,236,0.0,0.0,81,0.00,,,0.00,0,Wunderground v.1.15,2013-07-04 04:07:00,
2013-07-04 00:09:00,74.3,68.1,30.27,SW,236,0.0,0.0,81,0.00,,,0.00,0,Wunderground v.1.15,2013-07-04 04:09:00,
2013-07-04 00:14:00,74.2,68.0,30.27,SW,236,0.0,0.0,81,0.00,,,0.00,0,Wunderground v.1.15,2013-07-04 04:14:00,
2013-07-04 00:20:00,74.1,68.3,30.27,SW,236,0.0,0.0,82,0.00,,,0.00,0,Wunderground v.1.15,2013-07-04 04:20:00,
2013-07-04 00:25:00,74.1,68.3,30.27,SW,236,0.0,0.0,82,0.00,,,0.00,0,Wunderground v.1.15,2013-07-04 04:25:00,
2013-07-04 00:30:00,74.0,68.2,30.27,SW,236,0.0,0.0,82,0.00,,,0.00,0,Wunderground v.1.15,2013-07-04 04:30:00,
2013-07-04 00:35:00,74.0,68.2,30.27,SW,236,0.0,0.0,82,0.00,,,0.00,0,Wunderground v.1.15,2013-07-04 04:35:00,
2013-07-04 00:40:00,73.9,68.1,30.27,SW,236,0.0,0.0,82,0.00,,,0.00,0,Wunderground v.1.15,2013-07-04 04:40:00,
2013-07-04 00:46:00,73.8,68.0,30.27,SW,236,0.0,0.0,82,0.00,,,0.00,0,Wunderground v.1.15,2013-07-04 04:46:00,
2013-07-04 00:51:00,73.9,68.4,30.27,SW,236,0.0,0.0,83,0.00,,,0.00,0,Wunderground v.1.15,2013-07-04 04:51:00,
2013-07-04 00:56:00,73.8,68.0,30.27,SW,236,0.0,1.0,82,0.00,,,0.00,0,Wunderground v.1.15,2013-07-04 04:56:00,
2013-07-04 01:01:00,73.8,68.0,30.27,SW,236,0.0,1.0,82,0.00,,,0.00,0,Wunderground v.1.15,2013-07-04 05:01:00,
2013-07-04 01:06:00,73.9,68.4,30.27,SSW,206,0.0,1.0,83,0.00,,,0.00,0,Wunderground v.1.15,2013-07-04 05:06:00,
2013-07-04 01:12:00,73.9,68.4,30.27,SSW,206,0.0,1.0,83,0.00,,,0.00,0,Wunderground v.1.15,2013-07-04 05:12:00,
2013-07-04 01:17:00,73.7,67.9,30.27,SSW,206,0.0,1.0,82,0.00,,,0.00,0,Wunderground v.1.15,2013-07-04 05:17:00,
2013-07-04 01:22:00,73.6,67.8,30.27,SSW,206,0.0,1.0,82,0.00,,,0.00,0,Wunderground v.1.15,2013-07-04 05:22:00,
2013-07-04 01:27:00,73.5,67.7,30.27,SSW,206,0.0,1.0,82,0.00,,,0.00,0,Wunderground v.1.15,2013-07-04 05:27:00,
2013-07-04 01:32:00,73.4,67.6,30.27,SSW,206,0.0,1.0,82,0.00,,,0.00,0,Wunderground v.1.15,2013-07-04 05:32:00,
2013-07-04 01:38:00,73.4,67.9,30.27,SSW,206,0.0,1.0,83,0.00,,,0.00,0,Wunderground v.1.15,2013-07-04 05:38:00,
2013-07-04 01:43:00,73.3,67.5,30.27,SSW,206,0.0,1.0,82,0.00,,,0.00,0,Wunderground v.1.15,2013-07-04 05:43:00,
2013-07-04 01:48:00,73.2,67.7,30.27,SSW,206,0.0,1.0,83,0.00,,,0.00,0,Wunderground v.1.15,2013-07-04 05:48:00,
2013-07-04 01:53:00,73.1,67.6,30.27,SSW,206,0.0,1.0,83,0.00,,,0.00,0,Wunderground v.1.15,2013-07-04 05:53:00,
2013-07-04 01:58:00,73.3,67.8,30.27,SSW,207,0.0,1.0,83,0.00,,,0.00,0,Wunderground v.1.15,2013-07-04 05:58:00,
2013-07-04 02:03:00,73.5,68.0,30.27,SSW,207,0.0,0.0,83,0.00,,,0.00,0,Wunderground v.1.15,2013-07-04 06:03:00,
2013-07-04 02:08:00,73.4,67.9,30.27,SSW,207,0.0,0.0,83,0.00,,,0.00,0,Wunderground v.1.15,2013-07-04 06:08:00,
2013-07-04 02:13:00,73.3,67.8,30.27,SSW,207,0.0,1.0,83,0.00,,,0.00,0,Wunderground v.1.15,2013-07-04 06:13:00,
2013-07-04 02:18:00,73.2,67.7,30.27,SSW,207,0.0,1.0,83,0.00,,,0.00,0,Wunderground v.1.15,2013-07-04 06:18:00,
2013-07-04 02:23:00,73.2,67.7,30.27,SSW,207,0.0,0.0,83,0.00,,,0.00,0,Wunderground v.1.15,2013-07-04 06:23:00,
2013-07-04 02:28:00,73.1,67.6,30.27,SSW,207,0.0,0.0,83,0.00,,,0.00,0,Wunderground v.1.15,2013-07-04 06:28:00,
2013-07-04 02:34:00,73.2,67.7,30.27,NNW,339,0.0,0.0,83,0.00,,,0.00,0,Wunderground v.1.15,2013-07-04 06:34:00,
2013-07-04 02:39:00,73.1,67.6,30.27,NNW,339,0.0,0.0,83,0.00,,,0.00,0,Wunderground v.1.15,2013-07-04 06:39:00,
2013-07-04 02:44:00,73.1,67.6,30.27,NNW,339,0.0,0.0,83,0.00,,,0.00,0,Wunderground v.1.15,2013-07-04 06:44:00,
2013-07-04 02:49:00,73.0,67.5,30.27,NNW,339,0.0,0.0,83,0.00,,,0.00,0,Wunderground v.1.15,2013-07-04 06:49:00,
2013-07-04 02:54:00,73.0,67.5,30.27,NNW,339,0.0,0.0,83,0.00,,,0.00,0,Wunderground v.1.15,2013-07-04 06:54:00,
2013-07-04 03:00:00,72.9,67.4,30.27,NNW,339,0.0,0.0,83,0.00,,,0.00,0,Wunderground v.1.15,2013-07-04 07:00:00,
2013-07-04 03:05:00,72.8,67.3,30.27,NNW,339,0.0,1.0,83,0.00,,,0.00,0,Wunderground v.1.15,2013-07-04 07:05:00,
2013-07-04 03:10:00,72.8,67.3,30.27,NNW,339,0.0,1.0,83,0.00,,,0.00,0,Wunderground v.1.15,2013-07-04 07:10:00,
2013-07-04 03:15:00,72.6,67.1,30.27,NNW,339,0.0,1.0,83,0.00,,,0.00,0,Wunderground v.1.15,2013-07-04 07:15:00,
2013-07-04 03:20:00,72.6,67.1,30.26,NNW,339,0.0,1.0,83,0.00,,,0.00,0,Wunderground v.1.15,2013-07-04 07:20:00,
2013-07-04 03:26:00,72.5,67.0,30.26,NNW,339,0.0,1.0,83,0.00,,,0.00,0,Wunderground v.1.15,2013-07-04 07:26:00,
2013-07-04 03:31:00,72.4,66.9,30.26,NNW,339,0.0,1.0,83,0.00,,,0.00,0,Wunderground v.1.15,2013-07-04 07:31:00,
2013-07-04 03:36:00,72.3,66.8,30.26,NNW,339,0.0,1.0,83,0.00,,,0.00,0,Wunderground v.1.15,2013-07-04 07:36:00,
2013-07-04 03:42:00,72.1,66.6,30.27,NNW,339,0.0,1.0,83,0.00,,,0.00,0,Wunderground v.1.15,2013-07-04 07:42:00,
2013-07-04 03:48:00,72.0,66.6,30.27,NNW,339,0.0,1.0,83,0.00,,,0.00,0,Wunderground v.1.15,2013-07-04 07:48:00,
2013-07-04 03:53:00,71.9,66.5,30.27,NNW,339,0.0,1.0,83,0.00,,,0.00,0,Wunderground v.1.15,2013-07-04 07:53:00,
2013-07-04 03:58:00,72.0,66.6,30.27,NNW,339,0.0,1.0,83,0.00,,,0.00,0,Wunderground v.1.15,2013-07-04 07:58:00,
2013-07-04 04:03:00,71.9,66.5,30.26,NNW,339,0.0,1.0,83,0.00,,,0.00,0,Wunderground v.1.15,2013-07-04 08:03:00,
2013-07-04 04:08:00,71.9,66.8,30.26,NNW,339,0.0,1.0,84,0.00,,,0.00,0,Wunderground v.1.15,2013-07-04 08:08:00,
2013-07-04 04:14:00,71.9,66.8,30.26,NNW,339,0.0,1.0,84,0.00,,,0.00,0,Wunderground v.1.15,2013-07-04 08:14:00,
2013-07-04 04:19:00,71.7,66.3,30.27,NNW,339,0.0,1.0,83,0.00,,,0.00,0,Wunderground v.1.15,2013-07-04 08:19:00,
2013-07-04 04:24:00,71.6,66.2,30.26,NNW,339,0.0,1.0,83,0.00,,,0.00,0,Wunderground v.1.15,2013-07-04 08:24:00,
2013-07-04 04:29:00,71.4,66.0,30.27,NNW,339,0.0,1.0,83,0.00,,,0.00,0,Wunderground v.1.15,2013-07-04 08:29:00,
2013-07-04 04:34:00,71.5,66.4,30.27,NNW,339,0.0,1.0,84,0.00,,,0.00,0,Wunderground v.1.15,2013-07-04 08:34:00,
2013-07-04 04:40:00,71.3,65.9,30.27,NNW,339,0.0,1.0,83,0.00,,,0.00,0,Wunderground v.1.15,2013-07-04 08:40:00,
2013-07-04 04:45:00,71.1,65.7,30.27,NNW,339,0.0,1.0,83,0.00,,,0.00,0,Wunderground v.1.15,2013-07-04 08:45:00,
2013-07-04 04:50:00,71.2,66.1,30.27,NNW,339,0.0,1.0,84,0.00,,,0.00,0,Wunderground v.1.15,2013-07-04 08:50:00,
2013-07-04 04:55:00,71.3,66.2,30.27,NNW,339,0.0,1.0,84,0.00,,,0.00,0,Wunderground v.1.15,2013-07-04 08:55:00,
2013-07-04 05:00:00,71.2,66.1,30.27,NNW,339,0.0,1.0,84,0.00,,,0.00,0,Wunderground v.1.15,2013-07-04 09:00:00,
2013-07-04 05:06:00,71.0,65.6,30.27,NNW,339,0.0,1.0,83,0.00,,,0.00,0,Wunderground v.1.15,2013-07-04 09:06:00,
2013-07-04 05:11:00,71.0,65.9,30.27,NNW,339,0.0,1.0,84,0.00,,,0.00,0,Wunderground v.1.15,2013-07-04 09:11:00,
2013-07-04 05:16:00,70.9,65.8,30.27,NNW,339,0.0,1.0,84,0.00,,,0.00,0,Wunderground v.1.15,2013-07-04 09:16:00,
2013-07-04 05:21:00,70.8,65.7,30.27,NNW,339,0.0,1.0,84,0.00,,,0.00,0,Wunderground v.1.15,2013-07-04 09:21:00,
2013-07-04 05:26:00,70.8,65.7,30.28,NNW,339,0.0,1.0,84,0.00,,,0.00,0,Wunderground v.1.15,2013-07-04 09:26:00,
2013-07-04 05:32:00,70.7,65.6,30.28,NNW,339,0.0,1.0,84,0.00,,,0.00,0,Wunderground v.1.15,2013-07-04 09:32:00,
2013-07-04 05:37:00,70.7,65.6,30.28,NNW,339,0.0,1.0,84,0.00,,,0.00,0,Wunderground v.1.15,2013-07-04 09:37:00,
2013-07-04 05:42:00,70.6,65.5,30.28,NNW,339,0.0,1.0,84,0.00,,,0.00,0,Wunderground v.1.15,2013-07-04 09:42:00,
2013-07-04 05:47:00,70.5,65.4,30.29,NNW,339,0.0,1.0,84,0.00,,,0.00,5,Wunderground v.1.15,2013-07-04 09:47:00,
2013-07-04 05:52:00,70.5,65.4,30.29,NNW,339,0.0,1.0,84,0.00,,,0.00,5,Wunderground v.1.15,2013-07-04 09:52:00,
2013-07-04 05:58:00,70.6,65.5,30.29,NNW,339,0.0,1.0,84,0.00,,,0.00,11,Wunderground v.1.15,2013-07-04 09:58:00,
2013-07-04 06:03:00,70.8,66.1,30.29,NNW,339,0.0,1.0,85,0.00,,,0.00,12,Wunderground v.1.15,2013-07-04 10:03:00,
2013-07-04 06:08:00,70.9,66.2,30.29,NNW,339,0.0,1.0,85,0.00,,,0.00,14,Wunderground v.1.15,2013-07-04 10:08:00,
2013-07-04 06:13:00,71.1,66.4,30.29,NNW,339,0.0,1.0,85,0.00,,,0.00,18,Wunderground v.1.15,2013-07-04 10:13:00,
2013-07-04 06:18:00,71.1,66.4,30.29,NNW,339,0.0,1.0,85,0.00,,,0.00,25,Wunderground v.1.15,2013-07-04 10:18:00,
2013-07-04 06:24:00,71.4,66.7,30.29,NNW,339,0.0,1.0,85,0.00,,,0.00,26,Wunderground v.1.15,2013-07-04 10:24:00,
2013-07-04 06:29:00,71.7,66.9,30.29,NNW,339,0.0,1.0,85,0.00,,,0.00,25,Wunderground v.1.15,2013-07-04 10:29:00,
2013-07-04 06:34:00,72.1,67.7,30.29,NNW,339,0.0,1.0,86,0.00,,,0.00,26,Wunderground v.1.15,2013-07-04 10:34:00,
2013-07-04 06:39:00,72.6,68.2,30.29,NNW,339,0.0,1.0,86,0.00,,,0.00,23,Wunderground v.1.15,2013-07-04 10:39:00,
2013-07-04 06:44:00,73.0,68.6,30.29,NNW,339,0.0,1.0,86,0.00,,,0.00,81,Wunderground v.1.15,2013-07-04 10:44:00,
2013-07-04 06:50:00,73.3,68.9,30.29,NNW,339,0.0,1.0,86,0.00,,,0.00,107,Wunderground v.1.15,2013-07-04 10:50:00,
2013-07-04 06:55:00,73.4,69.0,30.30,NNW,339,0.0,1.0,86,0.00,,,0.00,40,Wunderground v.1.15,2013-07-04 10:55:00,
2013-07-04 07:00:00,73.5,68.7,30.29,NNW,339,0.0,1.0,85,0.00,,,0.00,165,Wunderground v.1.15,2013-07-04 11:00:00,
2013-07-04 07:05:00,73.9,69.1,30.30,NNW,339,0.0,1.0,85,0.00,,,0.00,104,Wunderground v.1.15,2013-07-04 11:05:00,
2013-07-04 07:10:00,74.1,69.6,30.30,NNW,339,0.0,1.0,86,0.00,,,0.00,204,Wunderground v.1.15,2013-07-04 11:10:00,
2013-07-04 07:16:00,74.4,69.6,30.30,NNW,339,0.0,1.0,85,0.00,,,0.00,105,Wunderground v.1.15,2013-07-04 11:16:00,
2013-07-04 07:21:00,74.7,69.9,30.30,NNW,339,0.0,1.0,85,0.00,,,0.00,74,Wunderground v.1.15,2013-07-04 11:21:00,
2013-07-04 07:26:00,75.0,70.2,30.30,NNW,339,0.0,1.0,85,0.00,,,0.00,67,Wunderground v.1.15,2013-07-04 11:26:00,
2013-07-04 07:31:00,75.2,70.4,30.30,NE,42,0.0,2.0,85,0.00,,,0.00,91,Wunderground v.1.15,2013-07-04 11:31:00,
2013-07-04 07:36:00,75.5,70.3,30.30,East,80,0.0,2.0,84,0.00,,,0.00,86,Wunderground v.1.15,2013-07-04 11:36:00,
2013-07-04 07:42:00,75.6,70.1,30.30,WSW,247,1.0,4.0,83,0.00,,,0.00,109,Wunderground v.1.15,2013-07-04 11:42:00,
2013-07-04 07:47:00,75.9,70.0,30.30,South,172,2.0,4.0,82,0.00,,,0.00,69,Wunderground v.1.15,2013-07-04 11:47:00,
2013-07-04 07:52:00,76.1,69.8,30.30,WNW,290,2.0,2.0,81,0.00,,,0.00,72,Wunderground v.1.15,2013-07-04 11:52:00,
2013-07-04 07:57:00,76.4,69.8,30.30,West,263,2.0,3.0,80,0.00,,,0.00,109,Wunderground v.1.15,2013-07-04 11:57:00,
2013-07-04 08:02:00,76.8,69.8,30.30,WSW,252,1.0,2.0,79,0.00,,,0.00,81,Wunderground v.1.15,2013-07-04 12:02:00,
2013-07-04 08:08:00,77.2,69.8,30.30,South,169,1.0,3.0,78,0.00,,,0.00,118,Wunderground v.1.15,2013-07-04 12:08:00,
2013-07-04 08:13:00,77.4,70.0,30.30,SW,217,1.0,2.0,78,0.00,,,0.00,137,Wunderground v.1.15,2013-07-04 12:13:00,
2013-07-04 08:18:00,77.6,69.8,30.30,SW,219,1.0,2.0,77,0.00,,,0.00,158,Wunderground v.1.15,2013-07-04 12:18:00,
2013-07-04 08:23:00,77.9,70.1,30.30,WNW,293,2.0,2.0,77,0.00,,,0.00,160,Wunderground v.1.15,2013-07-04 12:23:00,
2013-07-04 08:28:00,78.0,69.8,30.30,SSW,198,2.0,4.0,76,0.00,,,0.00,125,Wunderground v.1.15,2013-07-04 12:28:00,
2013-07-04 08:34:00,78.2,70.0,30.31,WSW,247,3.0,4.0,76,0.00,,,0.00,197,Wunderground v.1.15,2013-07-04 12:34:00,
2013-07-04 08:39:00,78.3,70.1,30.31,SW,222,2.0,4.0,76,0.00,,,0.00,144,Wunderground v.1.15,2013-07-04 12:39:00,
2013-07-04 08:44:00,78.4,70.2,30.31,WSW,257,2.0,5.0,76,0.00,,,0.00,121,Wunderground v.1.15,2013-07-04 12:44:00,
2013-07-04 08:49:00,78.5,69.9,30.31,West,277,3.0,6.0,75,0.00,,,0.00,169,Wunderground v.1.15,2013-07-04 12:49:00,
2013-07-04 08:54:00,78.5,69.9,30.31,SSW,208,3.0,6.0,75,0.00,,,0.00,155,Wunderground v.1.15,2013-07-04 12:54:00,
2013-07-04 09:00:00,78.7,70.1,30.31,West,281,3.0,3.0,75,0.00,,,0.00,171,Wunderground v.1.15,2013-07-04 13:00:00,
2013-07-04 09:05:00,78.7,70.1,30.31,WNW,294,3.0,6.0,75,0.00,,,0.00,156,Wunderground v.1.15,2013-07-04 13:05:00,
2013-07-04 09:10:00,78.8,70.2,30.31,WNW,302,4.0,4.0,75,0.00,,,0.00,183,Wunderground v.1.15,2013-07-04 13:10:00,
2013-07-04 09:15:00,78.8,70.2,30.31,NNW,327,4.0,4.0,75,0.00,,,0.00,195,Wunderground v.1.15,2013-07-04 13:15:00,
2013-07-04 09:20:00,78.8,70.2,30.31,WSW,258,3.0,3.0,75,0.00,,,0.00,211,Wunderground v.1.15,2013-07-04 13:20:00,
2013-07-04 09:25:00,78.9,70.3,30.31,West,275,3.0,4.0,75,0.00,,,0.00,185,Wunderground v.1.15,2013-07-04 13:25:00,
2013-07-04 09:30:00,79.0,70.4,30.31,WSW,253,3.0,3.0,75,0.00,,,0.00,158,Wunderground v.1.15,2013-07-04 13:30:00,
2013-07-04 09:35:00,79.1,70.5,30.31,West,264,3.0,4.0,75,0.00,,,0.00,234,Wunderground v.1.15,2013-07-04 13:35:00,
2013-07-04 09:40:00,79.2,70.2,30.30,SW,225,3.0,3.0,74,0.00,,,0.00,236,Wunderground v.1.15,2013-07-04 13:40:00,
2013-07-04 09:45:00,79.5,70.5,30.30,West,269,3.0,5.0,74,0.00,,,0.00,888,Wunderground v.1.15,2013-07-04 13:45:00,
2013-07-04 09:50:00,79.8,70.8,30.30,SW,234,2.0,3.0,74,0.00,,,0.00,207,Wunderground v.1.15,2013-07-04 13:50:00,
2013-07-04 09:56:00,80.0,70.6,30.30,WNW,286,3.0,7.0,73,0.00,,,0.00,165,Wunderground v.1.15,2013-07-04 13:56:00,
2013-07-04 10:01:00,79.9,70.9,30.30,West,267,4.0,4.0,74,0.00,,,0.00,169,Wunderground v.1.15,2013-07-04 14:01:00,
2013-07-04 10:07:00,79.8,70.8,30.30,NW,319,3.0,5.0,74,0.00,,,0.00,214,Wunderground v.1.15,2013-07-04 14:07:00,
2013-07-04 10:12:00,79.8,70.4,30.30,West,277,3.0,8.0,73,0.00,,,0.00,374,Wunderground v.1.15,2013-07-04 14:12:00,
2013-07-04 10:18:00,80.0,70.6,30.30,SSW,201,4.0,8.0,73,0.00,,,0.00,436,Wunderground v.1.15,2013-07-04 14:18:00,
2013-07-04 10:23:00,80.4,70.9,30.30,West,271,4.0,6.0,73,0.00,,,0.00,237,Wunderground v.1.15,2013-07-04 14:23:00,
2013-07-04 10:28:00,80.9,71.4,30.30,WSW,244,3.0,6.0,73,0.00,,,0.00,237,Wunderground v.1.15,2013-07-04 14:28:00,
2013-07-04 10:33:00,81.2,71.3,30.30,NW,326,3.0,5.0,72,0.00,,,0.00,237,Wunderground v.1.15,2013-07-04 14:33:00,
2013-07-04 10:38:00,81.3,71.4,30.30,SW,227,4.0,6.0,72,0.00,,,0.00,237,Wunderground v.1.15,2013-07-04 14:38:00,
2013-07-04 10:43:00,81.4,71.1,30.30,SSW,207,4.0,5.0,71,0.00,,,0.00,884,Wunderground v.1.15,2013-07-04 14:43:00,
2013-07-04 10:48:00,82.0,72.1,30.30,SW,217,3.0,6.0,72,0.00,,,0.00,846,Wunderground v.1.15,2013-07-04 14:48:00,
2013-07-04 10:53:00,82.3,71.5,30.30,SW,232,3.0,5.0,70,0.00,,,0.00,976,Wunderground v.1.15,2013-07-04 14:53:00,
2013-07-04 10:58:00,82.5,72.1,30.30,WSW,257,3.0,6.0,71,0.00,,,0.00,480,Wunderground v.1.15,2013-07-04 14:58:00,
2013-07-04 11:03:00,82.5,72.1,30.30,SSW,213,4.0,4.0,71,0.00,,,0.00,671,Wunderground v.1.15,2013-07-04 15:03:00,
2013-07-04 11:08:00,82.8,72.0,30.30,SW,227,3.0,5.0,70,0.00,,,0.00,225,Wunderground v.1.15,2013-07-04 15:08:00,
2013-07-04 11:13:00,82.8,72.0,30.29,SSW,201,3.0,5.0,70,0.00,,,0.00,631,Wunderground v.1.15,2013-07-04 15:13:00,
2013-07-04 11:18:00,82.7,71.9,30.29,West,259,4.0,5.0,70,0.00,,,0.00,276,Wunderground v.1.15,2013-07-04 15:18:00,
2013-07-04 11:23:00,83.0,72.2,30.29,WSW,252,3.0,3.0,70,0.00,,,0.00,601,Wunderground v.1.15,2013-07-04 15:23:00,
2013-07-04 11:28:00,83.5,72.7,30.29,West,275,3.0,8.0,70,0.00,,,0.00,918,Wunderground v.1.15,2013-07-04 15:28:00,
2013-07-04 11:33:00,83.8,72.5,30.29,SSE,150,4.0,6.0,69,0.00,,,0.00,183,Wunderground v.1.15,2013-07-04 15:33:00,
2013-07-04 11:38:00,84.1,72.8,30.28,SSE,156,4.0,6.0,69,0.00,,,0.00,192,Wunderground v.1.15,2013-07-04 15:38:00,
2013-07-04 11:43:00,84.3,73.0,30.28,SE,130,4.0,4.0,69,0.00,,,0.00,246,Wunderground v.1.15,2013-07-04 15:43:00,
2013-07-04 11:49:00,84.3,73.0,30.28,WSW,256,3.0,5.0,69,0.00,,,0.00,302,Wunderground v.1.15,2013-07-04 15:49:00,
2013-07-04 11:54:00,83.9,72.6,30.28,NW,323,3.0,4.0,69,0.00,,,0.00,302,Wunderground v.1.15,2013-07-04 15:54:00,
2013-07-04 11:59:00,84.1,72.8,30.28,SW,225,4.0,5.0,69,0.00,,,0.00,1211,Wunderground v.1.15,2013-07-04 15:59:00,
2013-07-04 12:04:00,84.4,72.7,30.28,SW,218,4.0,6.0,68,0.00,,,0.00,258,Wunderground v.1.15,2013-07-04 16:04:00,
2013-07-04 12:09:00,84.2,72.9,30.28,WSW,245,4.0,6.0,69,0.00,,,0.00,378,Wunderground v.1.15,2013-07-04 16:09:00,
2013-07-04 12:15:00,84.7,73.0,30.28,South,189,4.0,7.0,68,0.00,,,0.00,378,Wunderground v.1.15,2013-07-04 16:15:00,
2013-07-04 12:20:00,84.8,73.1,30.28,SSW,213,4.0,4.0,68,0.00,,,0.00,308,Wunderground v.1.15,2013-07-04 16:20:00,
2013-07-04 12:25:00,84.5,72.8,30.28,SW,236,4.0,6.0,68,0.00,,,0.00,392,Wunderground v.1.15,2013-07-04 16:25:00,
2013-07-04 12:30:00,84.8,73.1,30.28,SSE,167,4.0,4.0,68,0.00,,,0.00,246,Wunderground v.1.15,2013-07-04 16:30:00,
2013-07-04 12:35:00,84.7,73.0,30.28,South,171,4.0,8.0,68,0.00,,,0.00,142,Wunderground v.1.15,2013-07-04 16:35:00,
2013-07-04 12:41:00,85.2,73.9,30.28,South,178,3.0,3.0,69,0.00,,,0.00,963,Wunderground v.1.15,2013-07-04 16:41:00,
2013-07-04 12:46:00,85.4,73.6,30.28,South,184,4.0,9.0,68,0.00,,,0.00,229,Wunderground v.1.15,2013-07-04 16:46:00,
2013-07-04 12:51:00,86.0,74.2,30.27,NW,309,4.0,4.0,68,0.00,,,0.00,954,Wunderground v.1.15,2013-07-04 16:51:00,
2013-07-04 12:56:00,86.4,74.6,30.27,South,189,4.0,7.0,68,0.00,,,0.00,1025,Wunderground v.1.15,2013-07-04 16:56:00,
2013-07-04 13:01:00,86.5,73.3,30.27,West,263,5.0,5.0,65,0.00,,,0.00,912,Wunderground v.1.15,2013-07-04 17:01:00,
2013-07-04 13:07:00,86.8,74.5,30.27,ESE,103,4.0,5.0,67,0.00,,,0.00,327,Wunderground v.1.15,2013-07-04 17:07:00,
2013-07-04 13:12:00,87.2,73.5,30.27,ESE,107,3.0,6.0,64,0.00,,,0.00,949,Wunderground v.1.15,2013-07-04 17:12:00,
2013-07-04 13:17:00,87.1,73.9,30.27,South,184,4.0,6.0,65,0.00,,,0.00,911,Wunderground v.1.15,2013-07-04 17:17:00,
2013-07-04 13:22:00,86.6,73.9,30.27,SSE,148,5.0,6.0,66,0.00,,,0.00,911,Wunderground v.1.15,2013-07-04 17:22:00,
2013-07-04 13:27:00,86.8,73.6,30.27,WSW,238,5.0,7.0,65,0.00,,,0.00,230,Wunderground v.1.15,2013-07-04 17:27:00,
2013-07-04 13:33:00,86.7,74.0,30.26,SW,234,5.0,6.0,66,0.00,,,0.00,274,Wunderground v.1.15,2013-07-04 17:33:00,
2013-07-04 13:38:00,86.3,73.6,30.26,South,178,5.0,13.0,66,0.00,,,0.00,930,Wunderground v.1.15,2013-07-04 17:38:00,
2013-07-04 13:43:00,86.7,74.4,30.26,WNW,298,5.0,6.0,67,0.00,,,0.00,940,Wunderground v.1.15,2013-07-04 17:43:00,
2013-07-04 13:49:00,87.5,73.8,30.26,WSW,243,4.0,7.0,64,0.00,,,0.00,979,Wunderground v.1.15,2013-07-04 17:49:00,
2013-07-04 13:55:00,87.8,74.1,30.26,South,173,4.0,6.0,64,0.00,,,0.00,926,Wunderground v.1.15,2013-07-04 17:55:00,
2013-07-04 14:00:00,87.8,74.1,30.26,WSW,240,5.0,5.0,64,0.00,,,0.00,940,Wunderground v.1.15,2013-07-04 18:00:00,
2013-07-04 14:05:00,87.5,73.8,30.26,WSW,252,6.0,8.0,64,0.00,,,0.00,983,Wunderground v.1.15,2013-07-04 18:05:00,
2013-07-04 14:10:00,87.0,73.8,30.26,WSW,252,6.0,6.0,65,0.00,,,0.00,937,Wunderground v.1.15,2013-07-04 18:10:00,
2013-07-04 14:15:00,87.3,75.0,30.25,SW,217,5.0,7.0,67,0.00,,,0.00,888,Wunderground v.1.15,2013-07-04 18:15:00,
2013-07-04 14:20:00,87.9,74.7,30.25,SSW,210,4.0,4.0,65,0.00,,,0.00,974,Wunderground v.1.15,2013-07-04 18:20:00,
2013-07-04 14:25:00,88.9,75.6,30.25,South,175,2.0,4.0,65,0.00,,,0.00,1021,Wunderground v.1.15,2013-07-04 18:25:00,
2013-07-04 14:30:00,89.5,75.7,30.25,SSE,148,3.0,3.0,64,0.00,,,0.00,1035,Wunderground v.1.15,2013-07-04 18:30:00,
2013-07-04 14:35:00,89.0,74.8,30.25,SW,222,3.0,5.0,63,0.00,,,0.00,976,Wunderground v.1.15,2013-07-04 18:35:00,
2013-07-04 14:40:00,88.8,74.6,30.25,South,191,3.0,3.0,63,0.00,,,0.00,946,Wunderground v.1.15,2013-07-04 18:40:00,
2013-07-04 14:45:00,88.6,74.4,30.24,SSE,157,4.0,6.0,63,0.00,,,0.00,933,Wunderground v.1.15,2013-07-04 18:45:00,
2013-07-04 14:51:00,87.8,74.6,30.24,South,179,5.0,6.0,65,0.00,,,0.00,849,Wunderground v.1.15,2013-07-04 18:51:00,
2013-07-04 14:56:00,88.1,74.8,30.24,SSW,197,5.0,6.0,65,0.00,,,0.00,856,Wunderground v.1.15,2013-07-04 18:56:00,
2013-07-04 15:01:00,88.8,76.0,30.24,SW,231,3.0,4.0,66,0.00,,,0.00,830,Wunderground v.1.15,2013-07-04 19:01:00,
2013-07-04 15:06:00,89.3,75.5,30.24,SE,135,3.0,5.0,64,0.00,,,0.00,204,Wunderground v.1.15,2013-07-04 19:06:00,
2013-07-04 15:11:00,89.3,75.0,30.23,SSE,153,4.0,9.0,63,0.00,,,0.00,292,Wunderground v.1.15,2013-07-04 19:11:00,
2013-07-04 15:17:00,88.8,74.1,30.23,SE,134,5.0,9.0,62,0.00,,,0.00,867,Wunderground v.1.15,2013-07-04 19:17:00,
2013-07-04 15:22:00,88.7,74.0,30.23,SW,219,4.0,4.0,62,0.00,,,0.00,846,Wunderground v.1.15,2013-07-04 19:22:00,
2013-07-04 15:28:00,88.7,74.5,30.23,SSW,193,4.0,8.0,63,0.00,,,0.00,886,Wunderground v.1.15,2013-07-04 19:28:00,
2013-07-04 15:33:00,88.8,75.0,30.23,SW,225,4.0,4.0,64,0.00,,,0.00,847,Wunderground v.1.15,2013-07-04 19:33:00,
2013-07-04 15:38:00,89.2,75.4,30.23,WSW,252,3.0,4.0,64,0.00,,,0.00,925,Wunderground v.1.15,2013-07-04 19:38:00,
2013-07-04 15:43:00,89.6,75.3,30.23,South,169,3.0,7.0,63,0.00,,,0.00,202,Wunderground v.1.15,2013-07-04 19:43:00,
2013-07-04 15:48:00,89.3,75.0,30.23,SE,124,4.0,7.0,63,0.00,,,0.00,206,Wunderground v.1.15,2013-07-04 19:48:00,
2013-07-04 15:53:00,88.4,75.1,30.23,WSW,240,4.0,5.0,65,0.00,,,0.00,167,Wunderground v.1.15,2013-07-04 19:53:00,
2013-07-04 15:58:00,88.3,74.6,30.23,SW,230,3.0,5.0,64,0.00,,,0.00,814,Wunderground v.1.15,2013-07-04 19:58:00,
2013-07-04 16:03:00,88.4,74.7,30.22,WNW,302,3.0,4.0,64,0.00,,,0.00,773,Wunderground v.1.15,2013-07-04 20:03:00,
2013-07-04 16:09:00,88.4,75.1,30.22,SW,225,4.0,6.0,65,0.00,,,0.00,744,Wunderground v.1.15,2013-07-04 20:09:00,
2013-07-04 16:14:00,88.2,74.5,30.22,SSE,165,4.0,7.0,64,0.00,,,0.00,701,Wunderground v.1.15,2013-07-04 20:14:00,
2013-07-04 16:19:00,88.5,75.2,30.22,WSW,246,4.0,7.0,65,0.00,,,0.00,731,Wunderground v.1.15,2013-07-04 20:19:00,
2013-07-04 16:24:00,88.5,74.8,30.22,SW,232,4.0,8.0,64,0.00,,,0.00,680,Wunderground v.1.15,2013-07-04 20:24:00,
2013-07-04 16:29:00,88.7,75.0,30.22,SE,136,5.0,8.0,64,0.00,,,0.00,724,Wunderground v.1.15,2013-07-04 20:29:00,
2013-07-04 16:35:00,89.4,75.6,30.22,South,169,3.0,5.0,64,0.00,,,0.00,636,Wunderground v.1.15,2013-07-04 20:35:00,
2013-07-04 16:40:00,89.2,74.5,30.22,West,263,4.0,6.0,62,0.00,,,0.00,636,Wunderground v.1.15,2013-07-04 20:40:00,
2013-07-04 16:45:00,88.6,74.9,30.22,South,186,5.0,8.0,64,0.00,,,0.00,587,Wunderground v.1.15,2013-07-04 20:45:00,
2013-07-04 16:50:00,88.8,75.0,30.22,SW,215,4.0,4.0,64,0.00,,,0.00,594,Wunderground v.1.15,2013-07-04 20:50:00,
2013-07-04 16:56:00,88.7,75.0,30.22,SSE,157,4.0,6.0,64,0.00,,,0.00,547,Wunderground v.1.15,2013-07-04 20:56:00,
2013-07-04 17:01:00,88.8,75.0,30.22,West,279,4.0,4.0,64,0.00,,,0.00,527,Wunderground v.1.15,2013-07-04 21:01:00,
2013-07-04 17:06:00,89.0,75.2,30.22,South,189,3.0,6.0,64,0.00,,,0.00,531,Wunderground v.1.15,2013-07-04 21:06:00,
2013-07-04 17:11:00,89.2,75.0,30.22,SSE,151,4.0,9.0,63,0.00,,,0.00,566,Wunderground v.1.15,2013-07-04 21:11:00,
2013-07-04 17:17:00,88.7,74.5,30.22,South,189,5.0,9.0,63,0.00,,,0.00,132,Wunderground v.1.15,2013-07-04 21:17:00,
2013-07-04 17:22:00,88.3,74.6,30.21,SE,134,4.0,4.0,64,0.00,,,0.00,504,Wunderground v.1.15,2013-07-04 21:22:00,
2013-07-04 17:27:00,88.7,75.4,30.21,SW,219,3.0,5.0,65,0.00,,,0.00,506,Wunderground v.1.15,2013-07-04 21:27:00,
2013-07-04 17:32:00,88.8,75.0,30.21,WSW,252,3.0,4.0,64,0.00,,,0.00,102,Wunderground v.1.15,2013-07-04 21:32:00,
2013-07-04 17:37:00,88.4,74.7,30.21,WSW,255,3.0,4.0,64,0.00,,,0.00,163,Wunderground v.1.15,2013-07-04 21:37:00,
2013-07-04 17:42:00,88.1,74.8,30.21,SSW,203,2.0,6.0,65,0.00,,,0.00,425,Wunderground v.1.15,2013-07-04 21:42:00,
2013-07-04 17:48:00,88.4,75.1,30.21,SSW,205,3.0,6.0,65,0.00,,,0.00,390,Wunderground v.1.15,2013-07-04 21:48:00,
2013-07-04 17:53:00,88.6,75.3,30.20,South,184,3.0,3.0,65,0.00,,,0.00,410,Wunderground v.1.15,2013-07-04 21:53:00,
2013-07-04 17:59:00,88.9,75.1,30.20,South,170,3.0,6.0,64,0.00,,,0.00,367,Wunderground v.1.15,2013-07-04 21:59:00,
2013-07-04 18:05:00,88.6,75.3,30.20,SW,231,4.0,6.0,65,0.00,,,0.00,360,Wunderground v.1.15,2013-07-04 22:05:00,
2013-07-04 18:10:00,88.5,75.2,30.20,SE,142,4.0,4.0,65,0.00,,,0.00,322,Wunderground v.1.15,2013-07-04 22:10:00,
2013-07-04 18:15:00,88.7,75.0,30.21,SSW,213,3.0,4.0,64,0.00,,,0.00,301,Wunderground v.1.15,2013-07-04 22:15:00,
2013-07-04 18:20:00,88.8,75.5,30.21,SW,229,3.0,3.0,65,0.00,,,0.00,278,Wunderground v.1.15,2013-07-04 22:20:00,
2013-07-04 18:25:00,89.5,74.8,30.21,SSW,208,2.0,3.0,62,0.00,,,0.00,278,Wunderground v.1.15,2013-07-04 22:25:00,
2013-07-04 18:30:00,89.8,74.6,30.21,West,279,2.0,4.0,61,0.00,,,0.00,258,Wunderground v.1.15,2013-07-04 22:30:00,
2013-07-04 18:35:00,89.7,75.9,30.21,SW,216,2.0,4.0,64,0.00,,,0.00,244,Wunderground v.1.15,2013-07-04 22:35:00,
2013-07-04 18:41:00,90.0,75.7,30.21,SW,221,1.0,2.0,63,0.00,,,0.00,225,Wunderground v.1.15,2013-07-04 22:41:00,
2013-07-04 18:46:00,90.2,75.9,30.21,SW,230,1.0,2.0,63,0.00,,,0.00,209,Wunderground v.1.15,2013-07-04 22:46:00,
2013-07-04 18:51:00,89.9,75.1,30.21,West,271,2.0,2.0,62,0.00,,,0.00,193,Wunderground v.1.15,2013-07-04 22:51:00,
2013-07-04 18:56:00,88.6,74.4,30.21,SW,234,3.0,8.0,63,0.00,,,0.00,172,Wunderground v.1.15,2013-07-04 22:56:00,
2013-07-04 19:01:00,88.3,74.1,30.21,WSW,240,4.0,4.0,63,0.00,,,0.00,160,Wunderground v.1.15,2013-07-04 23:01:00,
2013-07-04 19:07:00,88.1,73.9,30.21,WSW,242,3.0,4.0,63,0.00,,,0.00,139,Wunderground v.1.15,2013-07-04 23:07:00,
2013-07-04 19:12:00,88.4,74.2,30.21,SW,227,2.0,3.0,63,0.00,,,0.00,121,Wunderground v.1.15,2013-07-04 23:12:00,
2013-07-04 19:17:00,88.7,75.0,30.21,SW,236,2.0,4.0,64,0.00,,,0.00,105,Wunderground v.1.15,2013-07-04 23:17:00,
2013-07-04 19:22:00,88.7,74.0,30.21,WSW,248,2.0,4.0,62,0.00,,,0.00,91,Wunderground v.1.15,2013-07-04 23:22:00,
2013-07-04 19:27:00,88.0,73.8,30.22,South,169,2.0,4.0,63,0.00,,,0.00,77,Wunderground v.1.15,2013-07-04 23:27:00,
2013-07-04 19:33:00,87.9,74.7,30.22,SW,228,2.0,3.0,65,0.00,,,0.00,62,Wunderground v.1.15,2013-07-04 23:33:00,
2013-07-04 19:38:00,88.3,74.1,30.22,South,178,1.0,3.0,63,0.00,,,0.00,53,Wunderground v.1.15,2013-07-04 23:38:00,
2013-07-04 19:43:00,88.4,74.2,30.22,SSE,165,1.0,1.0,63,0.00,,,0.00,42,Wunderground v.1.15,2013-07-04 23:43:00,
2013-07-04 19:49:00,88.4,74.2,30.22,SW,232,0.0,2.0,63,0.00,,,0.00,33,Wunderground v.1.15,2013-07-04 23:49:00,
2013-07-04 19:54:00,88.0,74.3,30.22,SW,229,1.0,1.0,64,0.00,,,0.00,26,Wunderground v.1.15,2013-07-04 23:54:00,
2013-07-04 19:59:00,87.8,74.1,30.22,South,182,1.0,3.0,64,0.00,,,0.00,23,Wunderground v.1.15,2013-07-04 23:59:00,
2013-07-04 20:04:00,87.6,74.4,30.22,South,182,0.0,1.0,65,0.00,,,0.00,18,Wunderground v.1.15,2013-07-05 00:04:00,
2013-07-04 20:09:00,87.4,73.7,30.22,SW,223,0.0,1.0,64,0.00,,,0.00,11,Wunderground v.1.15,2013-07-05 00:09:00,
2013-07-04 20:14:00,86.6,73.4,30.22,WSW,237,0.0,2.0,65,0.00,,,0.00,11,Wunderground v.1.15,2013-07-05 00:14:00,
2013-07-04 20:19:00,85.6,72.9,30.23,SW,214,1.0,3.0,66,0.00,,,0.00,7,Wunderground v.1.15,2013-07-05 00:19:00,
2013-07-04 20:25:00,84.8,72.6,30.23,SSW,195,1.0,3.0,67,0.00,,,0.00,5,Wunderground v.1.15,2013-07-05 00:25:00,
2013-07-04 20:30:00,84.0,72.3,30.23,SW,225,1.0,2.0,68,0.00,,,0.00,0,Wunderground v.1.15,2013-07-05 00:30:00,
2013-07-04 20:35:00,83.3,71.6,30.23,South,186,1.0,4.0,68,0.00,,,0.00,0,Wunderground v.1.15,2013-07-05 00:35:00,
2013-07-04 20:40:00,83.0,71.3,30.23,WSW,249,1.0,3.0,68,0.00,,,0.00,0,Wunderground v.1.15,2013-07-05 00:40:00,
2013-07-04 20:45:00,82.8,71.6,30.24,SSW,213,1.0,3.0,69,0.00,,,0.00,0,Wunderground v.1.15,2013-07-05 00:45:00,
2013-07-04 20:51:00,82.5,71.3,30.23,South,176,1.0,5.0,69,0.00,,,0.00,0,Wunderground v.1.15,2013-07-05 00:51:00,
2013-07-04 20:56:00,82.3,71.1,30.24,WSW,245,1.0,5.0,69,0.00,,,0.00,0,Wunderground v.1.15,2013-07-05 00:56:00,
2013-07-04 21:01:00,82.1,70.9,30.24,SW,218,1.0,1.0,69,0.00,,,0.00,0,Wunderground v.1.15,2013-07-05 01:01:00,
2013-07-04 21:07:00,82.0,70.8,30.23,South,169,1.0,3.0,69,0.00,,,0.00,0,Wunderground v.1.15,2013-07-05 01:07:00,
2013-07-04 21:12:00,81.8,70.6,30.23,SSW,205,1.0,1.0,69,0.00,,,0.00,0,Wunderground v.1.15,2013-07-05 01:12:00,
2013-07-04 21:17:00,81.8,70.6,30.23,SSW,193,0.0,1.0,69,0.00,,,0.00,0,Wunderground v.1.15,2013-07-05 01:17:00,
2013-07-04 21:22:00,81.8,70.6,30.23,East,99,0.0,1.0,69,0.00,,,0.00,0,Wunderground v.1.15,2013-07-05 01:22:00,
2013-07-04 21:27:00,81.5,70.3,30.24,SW,236,1.0,1.0,69,0.00,,,0.00,0,Wunderground v.1.15,2013-07-05 01:27:00,
2013-07-04 21:32:00,81.2,70.1,30.24,SW,236,0.0,1.0,69,0.00,,,0.00,0,Wunderground v.1.15,2013-07-05 01:32:00,
2013-07-04 21:37:00,81.1,70.4,30.24,SW,236,0.0,1.0,70,0.00,,,0.00,0,Wunderground v.1.15,2013-07-05 01:37:00,
2013-07-04 21:43:00,80.8,70.1,30.24,SW,236,0.0,1.0,70,0.00,,,0.00,0,Wunderground v.1.15,2013-07-05 01:43:00,
2013-07-04 21:48:00,80.5,69.8,30.24,SW,236,0.0,1.0,70,0.00,,,0.00,0,Wunderground v.1.15,2013-07-05 01:48:00,
2013-07-04 21:53:00,80.2,69.5,30.25,SW,230,0.0,1.0,70,0.00,,,0.00,0,Wunderground v.1.15,2013-07-05 01:53:00,
2013-07-04 21:58:00,80.2,69.5,30.25,SW,228,0.0,1.0,70,0.00,,,0.00,0,Wunderground v.1.15,2013-07-05 01:58:00,
2013-07-04 22:03:00,80.2,69.5,30.25,North,350,0.0,1.0,70,0.00,,,0.00,0,Wunderground v.1.15,2013-07-05 02:03:00,
2013-07-04 22:09:00,80.2,69.5,30.25,North,350,0.0,1.0,70,0.00,,,0.00,0,Wunderground v.1.15,2013-07-05 02:09:00,
2013-07-04 22:14:00,80.1,69.4,30.25,North,350,0.0,1.0,70,0.00,,,0.00,0,Wunderground v.1.15,2013-07-05 02:14:00,
2013-07-04 22:19:00,80.0,69.3,30.25,South,189,0.0,1.0,70,0.00,,,0.00,0,Wunderground v.1.15,2013-07-05 02:19:00,
2013-07-04 22:24:00,79.8,69.1,30.25,South,188,0.0,1.0,70,0.00,,,0.00,0,Wunderground v.1.15,2013-07-05 02:24:00,
2013-07-04 22:29:00,79.6,69.0,30.26,South,191,0.0,1.0,70,0.00,,,0.00,0,Wunderground v.1.15,2013-07-05 02:29:00,
2013-07-04 22:35:00,79.4,68.8,30.25,South,191,0.0,2.0,70,0.00,,,0.00,0,Wunderground v.1.15,2013-07-05 02:35:00,
2013-07-04 22:40:00,79.3,69.1,30.26,South,191,0.0,1.0,71,0.00,,,0.00,0,Wunderground v.1.15,2013-07-05 02:40:00,
2013-07-04 22:45:00,79.0,68.8,30.26,South,191,0.0,2.0,71,0.00,,,0.00,0,Wunderground v.1.15,2013-07-05 02:45:00,
2013-07-04 22:50:00,78.8,68.6,30.25,South,188,0.0,1.0,71,0.00,,,0.00,0,Wunderground v.1.15,2013-07-05 02:50:00,
2013-07-04 22:55:00,78.5,68.3,30.25,South,188,0.0,1.0,71,0.00,,,0.00,0,Wunderground v.1.15,2013-07-05 02:55:00,
2013-07-04 23:01:00,78.2,68.4,30.25,South,188,0.0,1.0,72,0.00,,,0.00,0,Wunderground v.1.15,2013-07-05 03:01:00,
2013-07-04 23:06:00,78.0,68.2,30.25,South,188,0.0,1.0,72,0.00,,,0.00,0,Wunderground v.1.15,2013-07-05 03:06:00,
2013-07-04 23:11:00,77.5,67.8,30.25,South,188,0.0,1.0,72,0.00,,,0.00,0,Wunderground v.1.15,2013-07-05 03:11:00,
2013-07-04 23:16:00,77.3,68.0,30.25,South,188,0.0,1.0,73,0.00,,,0.00,0,Wunderground v.1.15,2013-07-05 03:16:00,
2013-07-04 23:21:00,76.9,67.6,30.25,WNW,290,0.0,1.0,73,0.00,,,0.00,0,Wunderground v.1.15,2013-07-05 03:21:00,
2013-07-04 23:27:00,76.2,67.3,30.25,WNW,290,0.0,1.0,74,0.00,,,0.00,0,Wunderground v.1.15,2013-07-05 03:27:00,
2013-07-04 23:32:00,75.8,66.9,30.25,WNW,290,0.0,1.0,74,0.00,,,0.00,0,Wunderground v.1.15,2013-07-05 03:32:00,
2013-07-04 23:37:00,75.6,67.1,30.25,WNW,290,0.0,1.0,75,0.00,,,0.00,0,Wunderground v.1.15,2013-07-05 03:37:00,
2013-07-04 23:42:00,75.3,66.8,30.25,WNW,290,0.0,1.0,75,0.00,,,0.00,0,Wunderground v.1.15,2013-07-05 03:42:00,
2013-07-04 23:47:00,75.0,66.9,30.26,WNW,290,0.0,1.0,76,0.00,,,0.00,0,Wunderground v.1.15,2013-07-05 03:47:00,
2013-07-04 23:53:00,74.7,66.6,30.25,WNW,290,0.0,1.0,76,0.00,,,0.00,0,Wunderground v.1.15,2013-07-05 03:53:00,
2013-07-04 23:58:00,74.4,66.3,30.25,WNW,290,0.0,1.0,76,0.00,,,0.00,0,Wunderground v.1.15,2013-07-05 03:58:00,